sensor_id;sensor_type;location;lat;lon;timestamp;P1;durP1;ratioP1;P2;durP2;ratioP2
21036;SDS011;10677;50.942;4.028;2023-05-08T00:01:17;73.85;;;42.08;;
21036;SDS011;10677;50.942;4.028;2023-05-08T00:03:43;69.70;;;41.38;;
21036;SDS011;10677;50.942;4.028;2023-05-08T00:06:09;78.22;;;42.45;;
21036;SDS011;10677;50.942;4.028;2023-05-08T00:08:34;78.53;;;41.53;;
21036;SDS011;10677;50.942;4.028;2023-05-08T00:11:00;74.93;;;42.75;;
21036;SDS011;10677;50.942;4.028;2023-05-08T00:13:26;69.03;;;41.63;;
21036;SDS011;10677;50.942;4.028;2023-05-08T00:15:51;81.10;;;44.60;;
21036;SDS011;10677;50.942;4.028;2023-05-08T00:18:17;78.45;;;44.45;;
21036;SDS011;10677;50.942;4.028;2023-05-08T00:20:43;82.10;;;44.88;;
21036;SDS011;10677;50.942;4.028;2023-05-08T00:23:08;78.78;;;45.05;;
21036;SDS011;10677;50.942;4.028;2023-05-08T00:25:34;80.53;;;47.00;;
21036;SDS011;10677;50.942;4.028;2023-05-08T00:27:59;79.63;;;43.38;;
21036;SDS011;10677;50.942;4.028;2023-05-08T00:30:25;82.53;;;46.28;;
21036;SDS011;10677;50.942;4.028;2023-05-08T00:32:51;84.22;;;45.90;;
21036;SDS011;10677;50.942;4.028;2023-05-08T00:35:17;79.38;;;46.00;;
21036;SDS011;10677;50.942;4.028;2023-05-08T00:37:44;80.45;;;46.25;;
21036;SDS011;10677;50.942;4.028;2023-05-08T00:40:09;83.07;;;47.50;;
21036;SDS011;10677;50.942;4.028;2023-05-08T00:42:36;82.72;;;46.08;;
21036;SDS011;10677;50.942;4.028;2023-05-08T00:45:02;85.03;;;48.47;;
21036;SDS011;10677;50.942;4.028;2023-05-08T00:47:28;87.70;;;48.67;;
21036;SDS011;10677;50.942;4.028;2023-05-08T00:49:55;87.68;;;47.17;;
21036;SDS011;10677;50.942;4.028;2023-05-08T00:52:22;86.15;;;49.08;;
21036;SDS011;10677;50.942;4.028;2023-05-08T00:54:49;90.25;;;48.95;;
21036;SDS011;10677;50.942;4.028;2023-05-08T00:57:15;91.35;;;46.78;;
21036;SDS011;10677;50.942;4.028;2023-05-08T00:59:42;88.03;;;49.35;;
21036;SDS011;10677;50.942;4.028;2023-05-08T01:02:11;94.32;;;49.92;;
21036;SDS011;10677;50.942;4.028;2023-05-08T01:04:37;91.22;;;50.65;;
21036;SDS011;10677;50.942;4.028;2023-05-08T01:07:04;100.93;;;55.58;;
21036;SDS011;10677;50.942;4.028;2023-05-08T01:09:30;97.75;;;52.70;;
21036;SDS011;10677;50.942;4.028;2023-05-08T01:15:13;86.35;;;50.40;;
21036;SDS011;10677;50.942;4.028;2023-05-08T01:20:39;101.60;;;53.92;;
21036;SDS011;10677;50.942;4.028;2023-05-08T01:23:33;93.50;;;52.70;;
21036;SDS011;10677;50.942;4.028;2023-05-08T01:34:34;106.80;;;56.78;;
21036;SDS011;10677;50.942;4.028;2023-05-08T01:37:28;105.47;;;54.97;;
21036;SDS011;10677;50.942;4.028;2023-05-08T01:45:47;95.03;;;52.47;;
21036;SDS011;10677;50.942;4.028;2023-05-08T01:48:18;98.88;;;53.65;;
21036;SDS011;10677;50.942;4.028;2023-05-08T01:50:55;99.72;;;54.72;;
21036;SDS011;10677;50.942;4.028;2023-05-08T01:53:29;98.93;;;52.42;;
21036;SDS011;10677;50.942;4.028;2023-05-08T01:56:02;106.65;;;53.42;;
21036;SDS011;10677;50.942;4.028;2023-05-08T01:58:33;101.57;;;53.83;;
21036;SDS011;10677;50.942;4.028;2023-05-08T02:01:00;107.85;;;55.35;;
21036;SDS011;10677;50.942;4.028;2023-05-08T02:03:26;101.15;;;53.42;;
21036;SDS011;10677;50.942;4.028;2023-05-08T02:05:55;117.28;;;56.97;;
21036;SDS011;10677;50.942;4.028;2023-05-08T02:08:23;116.10;;;54.55;;
21036;SDS011;10677;50.942;4.028;2023-05-08T02:10:50;116.22;;;56.65;;
21036;SDS011;10677;50.942;4.028;2023-05-08T02:13:17;115.70;;;56.55;;
21036;SDS011;10677;50.942;4.028;2023-05-08T02:15:48;108.68;;;54.40;;
21036;SDS011;10677;50.942;4.028;2023-05-08T02:18:17;114.13;;;56.13;;
21036;SDS011;10677;50.942;4.028;2023-05-08T02:20:46;105.38;;;53.22;;
21036;SDS011;10677;50.942;4.028;2023-05-08T02:23:14;112.30;;;54.08;;
21036;SDS011;10677;50.942;4.028;2023-05-08T02:25:41;107.50;;;54.30;;
21036;SDS011;10677;50.942;4.028;2023-05-08T02:28:09;105.22;;;54.63;;
21036;SDS011;10677;50.942;4.028;2023-05-08T02:30:35;109.55;;;55.08;;
21036;SDS011;10677;50.942;4.028;2023-05-08T02:33:02;107.10;;;52.65;;
21036;SDS011;10677;50.942;4.028;2023-05-08T02:35:31;107.40;;;55.00;;
21036;SDS011;10677;50.942;4.028;2023-05-08T02:37:59;109.97;;;56.38;;
21036;SDS011;10677;50.942;4.028;2023-05-08T02:40:26;112.07;;;54.75;;
21036;SDS011;10677;50.942;4.028;2023-05-08T02:42:53;113.95;;;55.58;;
21036;SDS011;10677;50.942;4.028;2023-05-08T02:45:19;104.85;;;51.80;;
21036;SDS011;10677;50.942;4.028;2023-05-08T02:50:41;101.88;;;52.50;;
21036;SDS011;10677;50.942;4.028;2023-05-08T02:53:10;98.47;;;50.03;;
21036;SDS011;10677;50.942;4.028;2023-05-08T02:55:45;96.32;;;50.95;;
21036;SDS011;10677;50.942;4.028;2023-05-08T02:58:23;103.93;;;52.35;;
21036;SDS011;10677;50.942;4.028;2023-05-08T03:03:40;96.95;;;49.72;;
21036;SDS011;10677;50.942;4.028;2023-05-08T03:06:20;94.90;;;46.85;;
21036;SDS011;10677;50.942;4.028;2023-05-08T03:08:50;84.63;;;44.85;;
21036;SDS011;10677;50.942;4.028;2023-05-08T03:11:27;96.40;;;47.70;;
21036;SDS011;10677;50.942;4.028;2023-05-08T03:14:04;95.50;;;45.47;;
21036;SDS011;10677;50.942;4.028;2023-05-08T03:16:33;95.55;;;46.95;;
21036;SDS011;10677;50.942;4.028;2023-05-08T03:19:03;97.15;;;47.10;;
21036;SDS011;10677;50.942;4.028;2023-05-08T03:21:31;103.05;;;47.10;;
21036;SDS011;10677;50.942;4.028;2023-05-08T03:23:58;107.28;;;45.45;;
21036;SDS011;10677;50.942;4.028;2023-05-08T03:26:26;96.60;;;46.28;;
21036;SDS011;10677;50.942;4.028;2023-05-08T03:28:52;100.95;;;46.38;;
21036;SDS011;10677;50.942;4.028;2023-05-08T03:31:20;104.90;;;46.38;;
21036;SDS011;10677;50.942;4.028;2023-05-08T03:33:47;101.18;;;45.08;;
21036;SDS011;10677;50.942;4.028;2023-05-08T03:36:15;97.25;;;44.60;;
21036;SDS011;10677;50.942;4.028;2023-05-08T03:38:42;100.30;;;43.30;;
21036;SDS011;10677;50.942;4.028;2023-05-08T03:41:08;97.60;;;43.40;;
21036;SDS011;10677;50.942;4.028;2023-05-08T03:43:35;99.18;;;44.33;;
21036;SDS011;10677;50.942;4.028;2023-05-08T03:46:01;97.20;;;44.28;;
21036;SDS011;10677;50.942;4.028;2023-05-08T03:48:29;85.50;;;41.42;;
21036;SDS011;10677;50.942;4.028;2023-05-08T03:50:59;80.85;;;35.65;;
21036;SDS011;10677;50.942;4.028;2023-05-08T03:53:27;81.93;;;36.78;;
21036;SDS011;10677;50.942;4.028;2023-05-08T03:55:57;78.75;;;36.15;;
21036;SDS011;10677;50.942;4.028;2023-05-08T04:06:52;83.25;;;36.13;;
21036;SDS011;10677;50.942;4.028;2023-05-08T04:15:30;85.93;;;36.72;;
21036;SDS011;10677;50.942;4.028;2023-05-08T04:18:03;91.60;;;39.78;;
21036;SDS011;10677;50.942;4.028;2023-05-08T04:20:32;90.53;;;39.33;;
21036;SDS011;10677;50.942;4.028;2023-05-08T04:22:58;94.63;;;39.80;;
21036;SDS011;10677;50.942;4.028;2023-05-08T04:25:26;97.05;;;38.75;;
21036;SDS011;10677;50.942;4.028;2023-05-08T04:27:53;99.15;;;40.65;;
21036;SDS011;10677;50.942;4.028;2023-05-08T04:30:21;98.53;;;39.70;;
21036;SDS011;10677;50.942;4.028;2023-05-08T04:32:47;114.35;;;43.75;;
21036;SDS011;10677;50.942;4.028;2023-05-08T04:35:14;119.65;;;44.50;;
21036;SDS011;10677;50.942;4.028;2023-05-08T04:37:40;108.65;;;42.15;;
21036;SDS011;10677;50.942;4.028;2023-05-08T04:40:07;116.03;;;43.63;;
21036;SDS011;10677;50.942;4.028;2023-05-08T04:42:34;125.57;;;44.75;;
21036;SDS011;10677;50.942;4.028;2023-05-08T04:45:00;110.50;;;42.60;;
21036;SDS011;10677;50.942;4.028;2023-05-08T04:47:26;103.60;;;41.15;;
21036;SDS011;10677;50.942;4.028;2023-05-08T04:49:52;105.32;;;40.78;;
21036;SDS011;10677;50.942;4.028;2023-05-08T04:52:17;106.78;;;40.53;;
21036;SDS011;10677;50.942;4.028;2023-05-08T04:54:43;104.18;;;39.35;;
21036;SDS011;10677;50.942;4.028;2023-05-08T04:57:09;107.88;;;39.83;;
21036;SDS011;10677;50.942;4.028;2023-05-08T04:59:35;98.05;;;40.63;;
21036;SDS011;10677;50.942;4.028;2023-05-08T05:02:00;107.63;;;40.85;;
21036;SDS011;10677;50.942;4.028;2023-05-08T05:04:26;107.20;;;38.88;;
21036;SDS011;10677;50.942;4.028;2023-05-08T05:06:53;99.00;;;38.80;;
21036;SDS011;10677;50.942;4.028;2023-05-08T05:09:18;96.88;;;37.63;;
21036;SDS011;10677;50.942;4.028;2023-05-08T05:11:44;83.95;;;35.30;;
21036;SDS011;10677;50.942;4.028;2023-05-08T05:14:10;83.38;;;32.60;;
21036;SDS011;10677;50.942;4.028;2023-05-08T05:16:35;79.60;;;33.15;;
21036;SDS011;10677;50.942;4.028;2023-05-08T05:19:01;83.97;;;34.05;;
21036;SDS011;10677;50.942;4.028;2023-05-08T05:21:27;84.57;;;34.70;;
21036;SDS011;10677;50.942;4.028;2023-05-08T05:23:53;79.78;;;33.53;;
21036;SDS011;10677;50.942;4.028;2023-05-08T05:26:18;86.43;;;35.20;;
21036;SDS011;10677;50.942;4.028;2023-05-08T05:28:45;86.88;;;34.17;;
21036;SDS011;10677;50.942;4.028;2023-05-08T05:31:11;75.72;;;33.33;;
21036;SDS011;10677;50.942;4.028;2023-05-08T05:33:37;85.18;;;33.30;;
21036;SDS011;10677;50.942;4.028;2023-05-08T05:36:06;82.68;;;33.00;;
21036;SDS011;10677;50.942;4.028;2023-05-08T05:38:32;79.93;;;33.42;;
21036;SDS011;10677;50.942;4.028;2023-05-08T05:40:58;81.55;;;34.72;;
21036;SDS011;10677;50.942;4.028;2023-05-08T05:43:23;76.53;;;33.45;;
21036;SDS011;10677;50.942;4.028;2023-05-08T05:45:49;83.63;;;34.00;;
21036;SDS011;10677;50.942;4.028;2023-05-08T05:48:15;84.30;;;33.92;;
21036;SDS011;10677;50.942;4.028;2023-05-08T05:50:40;90.63;;;35.55;;
21036;SDS011;10677;50.942;4.028;2023-05-08T05:53:06;91.35;;;36.92;;
21036;SDS011;10677;50.942;4.028;2023-05-08T05:55:32;86.85;;;34.53;;
21036;SDS011;10677;50.942;4.028;2023-05-08T05:57:59;85.93;;;33.67;;
21036;SDS011;10677;50.942;4.028;2023-05-08T06:00:26;91.45;;;34.38;;
21036;SDS011;10677;50.942;4.028;2023-05-08T06:02:52;95.82;;;37.60;;
21036;SDS011;10677;50.942;4.028;2023-05-08T06:05:17;98.90;;;40.05;;
21036;SDS011;10677;50.942;4.028;2023-05-08T06:07:43;93.10;;;39.40;;
21036;SDS011;10677;50.942;4.028;2023-05-08T06:10:10;90.55;;;37.50;;
21036;SDS011;10677;50.942;4.028;2023-05-08T06:12:36;92.75;;;36.65;;
21036;SDS011;10677;50.942;4.028;2023-05-08T06:15:04;90.63;;;35.03;;
21036;SDS011;10677;50.942;4.028;2023-05-08T06:17:31;91.70;;;35.08;;
21036;SDS011;10677;50.942;4.028;2023-05-08T06:19:56;89.50;;;35.75;;
21036;SDS011;10677;50.942;4.028;2023-05-08T06:22:22;90.60;;;37.00;;
21036;SDS011;10677;50.942;4.028;2023-05-08T06:24:51;98.70;;;38.38;;
21036;SDS011;10677;50.942;4.028;2023-05-08T06:27:20;95.03;;;37.88;;
21036;SDS011;10677;50.942;4.028;2023-05-08T06:29:49;87.32;;;35.53;;
21036;SDS011;10677;50.942;4.028;2023-05-08T06:32:17;90.30;;;36.75;;
21036;SDS011;10677;50.942;4.028;2023-05-08T06:34:43;92.72;;;37.17;;
21036;SDS011;10677;50.942;4.028;2023-05-08T06:40:31;93.82;;;37.30;;
21036;SDS011;10677;50.942;4.028;2023-05-08T06:42:58;94.95;;;37.58;;
21036;SDS011;10677;50.942;4.028;2023-05-08T06:45:24;91.03;;;37.28;;
21036;SDS011;10677;50.942;4.028;2023-05-08T06:47:51;95.53;;;38.30;;
21036;SDS011;10677;50.942;4.028;2023-05-08T06:50:17;97.47;;;38.78;;
21036;SDS011;10677;50.942;4.028;2023-05-08T06:52:43;104.25;;;39.58;;
21036;SDS011;10677;50.942;4.028;2023-05-08T06:55:09;106.43;;;39.63;;
21036;SDS011;10677;50.942;4.028;2023-05-08T06:57:35;101.82;;;38.80;;
21036;SDS011;10677;50.942;4.028;2023-05-08T07:00:01;94.88;;;38.47;;
21036;SDS011;10677;50.942;4.028;2023-05-08T07:02:27;98.43;;;39.88;;
21036;SDS011;10677;50.942;4.028;2023-05-08T07:04:52;103.05;;;41.05;;
21036;SDS011;10677;50.942;4.028;2023-05-08T07:07:18;95.03;;;37.83;;
21036;SDS011;10677;50.942;4.028;2023-05-08T07:09:44;99.05;;;39.67;;
21036;SDS011;10677;50.942;4.028;2023-05-08T07:12:10;99.30;;;40.45;;
21036;SDS011;10677;50.942;4.028;2023-05-08T07:14:36;103.25;;;40.00;;
21036;SDS011;10677;50.942;4.028;2023-05-08T07:17:03;107.63;;;41.88;;
21036;SDS011;10677;50.942;4.028;2023-05-08T07:19:31;109.25;;;42.45;;
21036;SDS011;10677;50.942;4.028;2023-05-08T07:21:57;118.95;;;42.25;;
21036;SDS011;10677;50.942;4.028;2023-05-08T07:24:24;96.40;;;39.65;;
21036;SDS011;10677;50.942;4.028;2023-05-08T07:26:50;105.90;;;41.90;;
21036;SDS011;10677;50.942;4.028;2023-05-08T07:29:16;80.57;;;35.47;;
21036;SDS011;10677;50.942;4.028;2023-05-08T07:31:41;84.30;;;37.25;;
21036;SDS011;10677;50.942;4.028;2023-05-08T07:34:07;81.55;;;35.13;;
21036;SDS011;10677;50.942;4.028;2023-05-08T07:36:33;78.60;;;35.30;;
21036;SDS011;10677;50.942;4.028;2023-05-08T07:38:58;73.60;;;32.95;;
21036;SDS011;10677;50.942;4.028;2023-05-08T07:41:24;78.72;;;35.08;;
21036;SDS011;10677;50.942;4.028;2023-05-08T07:43:51;67.30;;;31.35;;
21036;SDS011;10677;50.942;4.028;2023-05-08T07:46:17;69.72;;;32.92;;
21036;SDS011;10677;50.942;4.028;2023-05-08T07:48:43;68.22;;;31.90;;
21036;SDS011;10677;50.942;4.028;2023-05-08T07:51:09;64.80;;;32.13;;
21036;SDS011;10677;50.942;4.028;2023-05-08T07:53:36;63.88;;;32.15;;
21036;SDS011;10677;50.942;4.028;2023-05-08T07:56:01;67.30;;;32.42;;
21036;SDS011;10677;50.942;4.028;2023-05-08T07:58:28;68.32;;;32.55;;
21036;SDS011;10677;50.942;4.028;2023-05-08T08:00:54;64.50;;;31.58;;
21036;SDS011;10677;50.942;4.028;2023-05-08T08:03:20;70.32;;;33.47;;
21036;SDS011;10677;50.942;4.028;2023-05-08T08:05:45;69.15;;;34.20;;
21036;SDS011;10677;50.942;4.028;2023-05-08T08:08:13;65.05;;;32.80;;
21036;SDS011;10677;50.942;4.028;2023-05-08T08:10:38;70.28;;;33.80;;
21036;SDS011;10677;50.942;4.028;2023-05-08T08:13:04;66.57;;;33.17;;
21036;SDS011;10677;50.942;4.028;2023-05-08T08:15:30;65.15;;;33.35;;
21036;SDS011;10677;50.942;4.028;2023-05-08T08:17:56;61.67;;;32.08;;
21036;SDS011;10677;50.942;4.028;2023-05-08T08:20:22;61.80;;;32.08;;
21036;SDS011;10677;50.942;4.028;2023-05-08T08:22:49;64.22;;;31.73;;
21036;SDS011;10677;50.942;4.028;2023-05-08T08:25:14;59.03;;;31.85;;
21036;SDS011;10677;50.942;4.028;2023-05-08T08:27:40;63.83;;;31.83;;
21036;SDS011;10677;50.942;4.028;2023-05-08T08:30:06;58.22;;;31.08;;
21036;SDS011;10677;50.942;4.028;2023-05-08T08:32:32;58.03;;;28.10;;
21036;SDS011;10677;50.942;4.028;2023-05-08T08:34:58;52.83;;;29.00;;
21036;SDS011;10677;50.942;4.028;2023-05-08T08:37:24;54.67;;;29.33;;
21036;SDS011;10677;50.942;4.028;2023-05-08T08:39:51;53.67;;;28.90;;
21036;SDS011;10677;50.942;4.028;2023-05-08T08:42:17;56.42;;;28.92;;
21036;SDS011;10677;50.942;4.028;2023-05-08T08:44:43;52.10;;;28.67;;
21036;SDS011;10677;50.942;4.028;2023-05-08T08:47:09;52.80;;;26.50;;
21036;SDS011;10677;50.942;4.028;2023-05-08T08:49:40;51.28;;;27.23;;
21036;SDS011;10677;50.942;4.028;2023-05-08T08:52:14;51.90;;;27.02;;
21036;SDS011;10677;50.942;4.028;2023-05-08T08:54:42;49.17;;;26.35;;
21036;SDS011;10677;50.942;4.028;2023-05-08T08:57:10;47.53;;;26.60;;
21036;SDS011;10677;50.942;4.028;2023-05-08T08:59:38;38.83;;;22.92;;
21036;SDS011;10677;50.942;4.028;2023-05-08T09:02:11;37.00;;;21.80;;
21036;SDS011;10677;50.942;4.028;2023-05-08T09:04:41;34.60;;;21.45;;
21036;SDS011;10677;50.942;4.028;2023-05-08T09:07:07;34.97;;;20.35;;
21036;SDS011;10677;50.942;4.028;2023-05-08T09:09:34;31.85;;;19.25;;
21036;SDS011;10677;50.942;4.028;2023-05-08T09:12:05;35.40;;;20.30;;
21036;SDS011;10677;50.942;4.028;2023-05-08T09:14:31;42.13;;;21.45;;
21036;SDS011;10677;50.942;4.028;2023-05-08T09:16:57;39.05;;;21.45;;
21036;SDS011;10677;50.942;4.028;2023-05-08T09:19:23;39.40;;;21.10;;
21036;SDS011;10677;50.942;4.028;2023-05-08T09:21:50;37.85;;;21.38;;
21036;SDS011;10677;50.942;4.028;2023-05-08T09:24:16;36.10;;;21.20;;
21036;SDS011;10677;50.942;4.028;2023-05-08T09:26:42;40.38;;;21.70;;
21036;SDS011;10677;50.942;4.028;2023-05-08T09:29:17;35.25;;;20.92;;
21036;SDS011;10677;50.942;4.028;2023-05-08T09:31:50;37.45;;;21.02;;
21036;SDS011;10677;50.942;4.028;2023-05-08T09:34:29;36.63;;;21.25;;
21036;SDS011;10677;50.942;4.028;2023-05-08T09:37:09;37.78;;;21.75;;
21036;SDS011;10677;50.942;4.028;2023-05-08T09:39:38;38.80;;;20.70;;
21036;SDS011;10677;50.942;4.028;2023-05-08T09:42:05;41.88;;;22.17;;
21036;SDS011;10677;50.942;4.028;2023-05-08T09:44:50;46.97;;;23.90;;
21036;SDS011;10677;50.942;4.028;2023-05-08T09:47:18;42.08;;;22.30;;
21036;SDS011;10677;50.942;4.028;2023-05-08T09:49:55;40.45;;;22.13;;
21036;SDS011;10677;50.942;4.028;2023-05-08T09:52:31;46.90;;;22.90;;
21036;SDS011;10677;50.942;4.028;2023-05-08T09:55:03;36.70;;;20.08;;
21036;SDS011;10677;50.942;4.028;2023-05-08T09:57:34;41.35;;;24.58;;
21036;SDS011;10677;50.942;4.028;2023-05-08T10:00:11;39.33;;;21.83;;
21036;SDS011;10677;50.942;4.028;2023-05-08T10:02:41;36.92;;;21.00;;
21036;SDS011;10677;50.942;4.028;2023-05-08T10:05:29;33.83;;;20.02;;
21036;SDS011;10677;50.942;4.028;2023-05-08T10:07:58;28.00;;;17.77;;
21036;SDS011;10677;50.942;4.028;2023-05-08T10:10:43;28.58;;;16.83;;
21036;SDS011;10677;50.942;4.028;2023-05-08T10:13:09;27.55;;;16.88;;
21036;SDS011;10677;50.942;4.028;2023-05-08T10:15:35;26.45;;;15.43;;
21036;SDS011;10677;50.942;4.028;2023-05-08T10:18:03;30.00;;;16.20;;
21036;SDS011;10677;50.942;4.028;2023-05-08T10:20:30;24.42;;;15.50;;
21036;SDS011;10677;50.942;4.028;2023-05-08T10:22:57;25.38;;;16.42;;
21036;SDS011;10677;50.942;4.028;2023-05-08T10:25:23;25.75;;;16.15;;
21036;SDS011;10677;50.942;4.028;2023-05-08T10:27:54;22.95;;;15.25;;
21036;SDS011;10677;50.942;4.028;2023-05-08T10:30:25;27.05;;;17.27;;
21036;SDS011;10677;50.942;4.028;2023-05-08T10:32:51;23.08;;;14.32;;
21036;SDS011;10677;50.942;4.028;2023-05-08T10:35:22;24.08;;;15.15;;
21036;SDS011;10677;50.942;4.028;2023-05-08T10:37:51;29.83;;;19.10;;
21036;SDS011;10677;50.942;4.028;2023-05-08T10:40:19;23.92;;;15.75;;
21036;SDS011;10677;50.942;4.028;2023-05-08T10:45:45;22.80;;;14.40;;
21036;SDS011;10677;50.942;4.028;2023-05-08T10:51:20;20.85;;;14.77;;
21036;SDS011;10677;50.942;4.028;2023-05-08T10:53:56;24.42;;;14.98;;
21036;SDS011;10677;50.942;4.028;2023-05-08T10:56:29;24.05;;;15.35;;
21036;SDS011;10677;50.942;4.028;2023-05-08T10:58:55;22.90;;;15.40;;
21036;SDS011;10677;50.942;4.028;2023-05-08T11:01:22;24.88;;;15.15;;
21036;SDS011;10677;50.942;4.028;2023-05-08T11:03:48;24.80;;;15.25;;
21036;SDS011;10677;50.942;4.028;2023-05-08T11:06:14;25.38;;;15.45;;
21036;SDS011;10677;50.942;4.028;2023-05-08T11:11:35;22.27;;;14.32;;
21036;SDS011;10677;50.942;4.028;2023-05-08T11:14:09;22.55;;;13.88;;
21036;SDS011;10677;50.942;4.028;2023-05-08T11:19:22;19.70;;;13.50;;
21036;SDS011;10677;50.942;4.028;2023-05-08T11:24:52;20.77;;;13.60;;
21036;SDS011;10677;50.942;4.028;2023-05-08T11:27:32;20.02;;;12.95;;
21036;SDS011;10677;50.942;4.028;2023-05-08T11:30:22;17.65;;;12.32;;
21036;SDS011;10677;50.942;4.028;2023-05-08T11:38:10;18.70;;;12.48;;
21036;SDS011;10677;50.942;4.028;2023-05-08T11:41:06;19.08;;;12.82;;
21036;SDS011;10677;50.942;4.028;2023-05-08T11:46:18;22.55;;;12.00;;
21036;SDS011;10677;50.942;4.028;2023-05-08T11:48:45;18.75;;;11.60;;
21036;SDS011;10677;50.942;4.028;2023-05-08T11:51:11;18.85;;;11.75;;
21036;SDS011;10677;50.942;4.028;2023-05-08T11:53:37;15.93;;;11.32;;
21036;SDS011;10677;50.942;4.028;2023-05-08T11:56:04;18.02;;;11.43;;
21036;SDS011;10677;50.942;4.028;2023-05-08T11:58:30;15.40;;;10.63;;
21036;SDS011;10677;50.942;4.028;2023-05-08T12:00:56;17.00;;;11.50;;
21036;SDS011;10677;50.942;4.028;2023-05-08T12:03:22;16.45;;;10.65;;
21036;SDS011;10677;50.942;4.028;2023-05-08T12:05:56;19.42;;;12.02;;
21036;SDS011;10677;50.942;4.028;2023-05-08T12:08:26;15.88;;;9.70;;
21036;SDS011;10677;50.942;4.028;2023-05-08T12:10:52;15.75;;;10.75;;
21036;SDS011;10677;50.942;4.028;2023-05-08T12:13:23;17.83;;;9.45;;
21036;SDS011;10677;50.942;4.028;2023-05-08T12:15:53;12.65;;;9.50;;
21036;SDS011;10677;50.942;4.028;2023-05-08T12:18:24;17.88;;;9.65;;
21036;SDS011;10677;50.942;4.028;2023-05-08T12:20:52;14.48;;;9.52;;
21036;SDS011;10677;50.942;4.028;2023-05-08T12:23:25;14.45;;;9.68;;
21036;SDS011;10677;50.942;4.028;2023-05-08T12:26:04;14.63;;;9.98;;
21036;SDS011;10677;50.942;4.028;2023-05-08T12:28:32;14.75;;;10.10;;
21036;SDS011;10677;50.942;4.028;2023-05-08T12:33:29;13.07;;;8.95;;
21036;SDS011;10677;50.942;4.028;2023-05-08T12:35:56;12.10;;;8.10;;
21036;SDS011;10677;50.942;4.028;2023-05-08T12:38:25;11.13;;;7.90;;
21036;SDS011;10677;50.942;4.028;2023-05-08T12:40:51;15.82;;;7.80;;
21036;SDS011;10677;50.942;4.028;2023-05-08T12:56:20;11.90;;;7.20;;
21036;SDS011;10677;50.942;4.028;2023-05-08T12:58:46;10.10;;;7.07;;
21036;SDS011;10677;50.942;4.028;2023-05-08T13:01:12;16.48;;;8.45;;
21036;SDS011;10677;50.942;4.028;2023-05-08T13:03:40;13.63;;;8.70;;
21036;SDS011;10677;50.942;4.028;2023-05-08T13:06:19;11.55;;;8.40;;
21036;SDS011;10677;50.942;4.028;2023-05-08T13:08:51;15.38;;;9.40;;
21036;SDS011;10677;50.942;4.028;2023-05-08T13:24:12;11.30;;;8.15;;
21036;SDS011;10677;50.942;4.028;2023-05-08T13:26:43;11.10;;;7.82;;
21036;SDS011;10677;50.942;4.028;2023-05-08T13:29:12;14.35;;;8.18;;
21036;SDS011;10677;50.942;4.028;2023-05-08T13:31:38;14.10;;;8.48;;
21036;SDS011;10677;50.942;4.028;2023-05-08T13:34:04;12.57;;;7.68;;
21036;SDS011;10677;50.942;4.028;2023-05-08T13:36:30;11.35;;;8.20;;
21036;SDS011;10677;50.942;4.028;2023-05-08T13:38:56;10.30;;;6.93;;
21036;SDS011;10677;50.942;4.028;2023-05-08T13:41:22;11.48;;;7.70;;
21036;SDS011;10677;50.942;4.028;2023-05-08T13:43:57;10.98;;;7.30;;
21036;SDS011;10677;50.942;4.028;2023-05-08T13:49:01;11.73;;;6.65;;
21036;SDS011;10677;50.942;4.028;2023-05-08T13:51:26;12.02;;;7.72;;
21036;SDS011;10677;50.942;4.028;2023-05-08T13:54:10;11.10;;;7.82;;
21036;SDS011;10677;50.942;4.028;2023-05-08T13:56:50;11.82;;;7.70;;
21036;SDS011;10677;50.942;4.028;2023-05-08T13:59:25;13.23;;;7.90;;
21036;SDS011;10677;50.942;4.028;2023-05-08T14:01:52;12.75;;;8.05;;
21036;SDS011;10677;50.942;4.028;2023-05-08T14:04:20;12.00;;;7.38;;
21036;SDS011;10677;50.942;4.028;2023-05-08T14:06:55;12.30;;;8.07;;
21036;SDS011;10677;50.942;4.028;2023-05-08T14:09:20;11.93;;;7.45;;
21036;SDS011;10677;50.942;4.028;2023-05-08T14:11:46;11.57;;;8.13;;
21036;SDS011;10677;50.942;4.028;2023-05-08T14:14:12;12.40;;;8.43;;
21036;SDS011;10677;50.942;4.028;2023-05-08T14:16:38;12.65;;;8.82;;
21036;SDS011;10677;50.942;4.028;2023-05-08T14:19:04;15.02;;;8.93;;
21036;SDS011;10677;50.942;4.028;2023-05-08T14:21:37;13.27;;;8.57;;
21036;SDS011;10677;50.942;4.028;2023-05-08T14:24:25;18.13;;;10.65;;
21036;SDS011;10677;50.942;4.028;2023-05-08T14:26:51;14.05;;;9.27;;
21036;SDS011;10677;50.942;4.028;2023-05-08T14:29:16;13.48;;;8.60;;
21036;SDS011;10677;50.942;4.028;2023-05-08T14:31:45;14.77;;;8.80;;
21036;SDS011;10677;50.942;4.028;2023-05-08T14:34:10;14.35;;;9.52;;
21036;SDS011;10677;50.942;4.028;2023-05-08T14:36:37;16.73;;;11.35;;
21036;SDS011;10677;50.942;4.028;2023-05-08T14:39:03;17.45;;;12.18;;
21036;SDS011;10677;50.942;4.028;2023-05-08T14:41:29;17.52;;;13.18;;
21036;SDS011;10677;50.942;4.028;2023-05-08T14:43:55;20.77;;;14.25;;
21036;SDS011;10677;50.942;4.028;2023-05-08T14:46:21;18.75;;;13.65;;
21036;SDS011;10677;50.942;4.028;2023-05-08T14:48:47;21.10;;;14.05;;
21036;SDS011;10677;50.942;4.028;2023-05-08T14:51:13;20.00;;;13.60;;
21036;SDS011;10677;50.942;4.028;2023-05-08T14:53:39;19.55;;;13.43;;
21036;SDS011;10677;50.942;4.028;2023-05-08T14:56:05;20.17;;;14.50;;
21036;SDS011;10677;50.942;4.028;2023-05-08T14:58:31;20.55;;;15.13;;
21036;SDS011;10677;50.942;4.028;2023-05-08T15:00:57;20.77;;;15.15;;
21036;SDS011;10677;50.942;4.028;2023-05-08T15:03:23;21.77;;;15.13;;
21036;SDS011;10677;50.942;4.028;2023-05-08T15:08:24;17.67;;;12.18;;
21036;SDS011;10677;50.942;4.028;2023-05-08T15:10:50;17.50;;;12.57;;
21036;SDS011;10677;50.942;4.028;2023-05-08T15:13:16;16.98;;;12.40;;
21036;SDS011;10677;50.942;4.028;2023-05-08T15:15:41;17.90;;;12.85;;
21036;SDS011;10677;50.942;4.028;2023-05-08T15:18:07;17.45;;;11.85;;
21036;SDS011;10677;50.942;4.028;2023-05-08T15:20:34;16.67;;;12.15;;
21036;SDS011;10677;50.942;4.028;2023-05-08T15:22:59;16.63;;;12.50;;
21036;SDS011;10677;50.942;4.028;2023-05-08T15:25:25;17.95;;;12.57;;
21036;SDS011;10677;50.942;4.028;2023-05-08T15:27:51;17.25;;;12.48;;
21036;SDS011;10677;50.942;4.028;2023-05-08T15:30:20;17.80;;;11.93;;
21036;SDS011;10677;50.942;4.028;2023-05-08T15:32:46;16.77;;;12.43;;
21036;SDS011;10677;50.942;4.028;2023-05-08T15:35:13;22.27;;;13.30;;
21036;SDS011;10677;50.942;4.028;2023-05-08T15:37:40;19.67;;;13.20;;
21036;SDS011;10677;50.942;4.028;2023-05-08T15:40:06;20.48;;;14.48;;
21036;SDS011;10677;50.942;4.028;2023-05-08T15:42:32;18.73;;;13.75;;
21036;SDS011;10677;50.942;4.028;2023-05-08T15:44:58;20.45;;;13.32;;
21036;SDS011;10677;50.942;4.028;2023-05-08T15:47:25;18.33;;;12.68;;
21036;SDS011;10677;50.942;4.028;2023-05-08T15:49:51;20.10;;;13.18;;
21036;SDS011;10677;50.942;4.028;2023-05-08T15:52:17;19.08;;;12.55;;
21036;SDS011;10677;50.942;4.028;2023-05-08T15:54:47;19.10;;;12.75;;
21036;SDS011;10677;50.942;4.028;2023-05-08T15:57:14;18.80;;;12.80;;
21036;SDS011;10677;50.942;4.028;2023-05-08T15:59:40;16.75;;;12.57;;
21036;SDS011;10677;50.942;4.028;2023-05-08T16:02:07;23.30;;;12.70;;
21036;SDS011;10677;50.942;4.028;2023-05-08T16:04:33;18.70;;;12.27;;
21036;SDS011;10677;50.942;4.028;2023-05-08T16:06:59;16.77;;;12.20;;